sensor_id;sensor_type;location;lat;lon;timestamp;P1;durP1;ratioP1;P2;durP2;ratioP2
2522;SDS011;1272;53.332;9.860;2023-05-20T00:01:26;0.90;;;0.90;;
2522;SDS011;1272;53.332;9.860;2023-05-20T00:03:52;0.70;;;0.70;;
2522;SDS011;1272;53.332;9.860;2023-05-20T00:06:18;1.50;;;1.40;;
2522;SDS011;1272;53.332;9.860;2023-05-20T00:08:43;1.10;;;1.00;;
2522;SDS011;1272;53.332;9.860;2023-05-20T00:11:09;1.33;;;1.23;;
2522;SDS011;1272;53.332;9.860;2023-05-20T00:13:35;1.30;;;1.20;;
2522;SDS011;1272;53.332;9.860;2023-05-20T00:16:04;1.20;;;1.03;;
2522;SDS011;1272;53.332;9.860;2023-05-20T00:18:30;1.03;;;1.03;;
2522;SDS011;1272;53.332;9.860;2023-05-20T00:20:56;1.07;;;1.07;;
2522;SDS011;1272;53.332;9.860;2023-05-20T00:23:22;1.20;;;1.10;;
2522;SDS011;1272;53.332;9.860;2023-05-20T00:25:50;1.30;;;1.00;;
2522;SDS011;1272;53.332;9.860;2023-05-20T00:28:15;0.93;;;0.83;;
2522;SDS011;1272;53.332;9.860;2023-05-20T00:30:41;1.10;;;1.10;;
2522;SDS011;1272;53.332;9.860;2023-05-20T00:33:07;1.23;;;1.10;;
2522;SDS011;1272;53.332;9.860;2023-05-20T00:35:32;0.97;;;0.90;;
2522;SDS011;1272;53.332;9.860;2023-05-20T00:37:58;1.00;;;1.00;;
2522;SDS011;1272;53.332;9.860;2023-05-20T00:40:26;0.73;;;0.73;;
2522;SDS011;1272;53.332;9.860;2023-05-20T00:42:52;0.90;;;0.90;;
2522;SDS011;1272;53.332;9.860;2023-05-20T00:45:17;1.80;;;1.03;;
2522;SDS011;1272;53.332;9.860;2023-05-20T00:47:43;0.83;;;0.80;;
2522;SDS011;1272;53.332;9.860;2023-05-20T00:50:09;1.00;;;1.00;;
2522;SDS011;1272;53.332;9.860;2023-05-20T00:52:35;1.07;;;1.00;;
2522;SDS011;1272;53.332;9.860;2023-05-20T00:55:02;1.17;;;1.17;;
2522;SDS011;1272;53.332;9.860;2023-05-20T00:57:28;0.80;;;0.80;;
2522;SDS011;1272;53.332;9.860;2023-05-20T00:59:54;0.90;;;0.90;;
2522;SDS011;1272;53.332;9.860;2023-05-20T01:02:20;1.87;;;1.30;;
2522;SDS011;1272;53.332;9.860;2023-05-20T01:04:46;1.37;;;1.27;;
2522;SDS011;1272;53.332;9.860;2023-05-20T01:07:15;1.00;;;1.00;;
2522;SDS011;1272;53.332;9.860;2023-05-20T01:09:42;1.30;;;1.10;;
2522;SDS011;1272;53.332;9.860;2023-05-20T01:12:12;1.07;;;1.07;;
2522;SDS011;1272;53.332;9.860;2023-05-20T01:15:03;1.23;;;1.00;;
2522;SDS011;1272;53.332;9.860;2023-05-20T01:17:32;1.00;;;0.90;;
2522;SDS011;1272;53.332;9.860;2023-05-20T01:20:06;1.03;;;1.03;;
2522;SDS011;1272;53.332;9.860;2023-05-20T01:22:35;1.00;;;1.00;;
2522;SDS011;1272;53.332;9.860;2023-05-20T01:25:16;1.63;;;1.20;;
2522;SDS011;1272;53.332;9.860;2023-05-20T01:27:42;0.90;;;0.90;;
2522;SDS011;1272;53.332;9.860;2023-05-20T01:30:08;1.57;;;0.90;;
2522;SDS011;1272;53.332;9.860;2023-05-20T01:32:40;1.53;;;1.00;;
2522;SDS011;1272;53.332;9.860;2023-05-20T01:35:08;1.10;;;1.10;;
2522;SDS011;1272;53.332;9.860;2023-05-20T01:37:37;0.97;;;0.83;;
2522;SDS011;1272;53.332;9.860;2023-05-20T01:40:05;1.37;;;0.97;;
2522;SDS011;1272;53.332;9.860;2023-05-20T01:42:32;1.20;;;1.10;;
2522;SDS011;1272;53.332;9.860;2023-05-20T01:44:59;0.80;;;0.80;;
2522;SDS011;1272;53.332;9.860;2023-05-20T01:47:25;3.47;;;0.93;;
2522;SDS011;1272;53.332;9.860;2023-05-20T01:49:51;1.23;;;0.90;;
2522;SDS011;1272;53.332;9.860;2023-05-20T01:52:18;1.57;;;1.13;;
2522;SDS011;1272;53.332;9.860;2023-05-20T01:54:45;0.70;;;0.70;;
2522;SDS011;1272;53.332;9.860;2023-05-20T01:57:16;1.70;;;1.00;;
2522;SDS011;1272;53.332;9.860;2023-05-20T01:59:43;1.27;;;0.97;;
2522;SDS011;1272;53.332;9.860;2023-05-20T02:02:08;0.97;;;0.97;;
2522;SDS011;1272;53.332;9.860;2023-05-20T02:04:34;1.20;;;0.97;;
2522;SDS011;1272;53.332;9.860;2023-05-20T02:07:00;0.90;;;0.90;;
2522;SDS011;1272;53.332;9.860;2023-05-20T02:09:25;1.00;;;1.00;;
2522;SDS011;1272;53.332;9.860;2023-05-20T02:11:52;1.30;;;1.20;;
2522;SDS011;1272;53.332;9.860;2023-05-20T02:14:17;0.97;;;0.97;;
2522;SDS011;1272;53.332;9.860;2023-05-20T02:16:43;1.00;;;1.00;;
2522;SDS011;1272;53.332;9.860;2023-05-20T02:19:10;0.87;;;0.87;;
2522;SDS011;1272;53.332;9.860;2023-05-20T02:21:37;0.93;;;0.93;;
2522;SDS011;1272;53.332;9.860;2023-05-20T02:24:04;1.43;;;1.27;;
2522;SDS011;1272;53.332;9.860;2023-05-20T02:26:31;2.70;;;0.80;;
2522;SDS011;1272;53.332;9.860;2023-05-20T02:28:57;1.17;;;1.07;;
2522;SDS011;1272;53.332;9.860;2023-05-20T02:31:23;1.07;;;0.90;;
2522;SDS011;1272;53.332;9.860;2023-05-20T02:33:49;1.00;;;1.00;;
2522;SDS011;1272;53.332;9.860;2023-05-20T02:36:14;1.27;;;1.23;;
2522;SDS011;1272;53.332;9.860;2023-05-20T02:38:41;0.80;;;0.80;;
2522;SDS011;1272;53.332;9.860;2023-05-20T02:41:07;0.90;;;0.90;;
2522;SDS011;1272;53.332;9.860;2023-05-20T02:43:32;1.10;;;1.00;;
2522;SDS011;1272;53.332;9.860;2023-05-20T02:46:00;0.90;;;0.90;;
2522;SDS011;1272;53.332;9.860;2023-05-20T02:48:28;1.10;;;1.00;;
2522;SDS011;1272;53.332;9.860;2023-05-20T02:50:54;1.27;;;0.97;;
2522;SDS011;1272;53.332;9.860;2023-05-20T02:53:20;1.80;;;1.07;;
2522;SDS011;1272;53.332;9.860;2023-05-20T02:55:46;0.90;;;0.90;;
2522;SDS011;1272;53.332;9.860;2023-05-20T02:58:12;3.90;;;1.27;;
2522;SDS011;1272;53.332;9.860;2023-05-20T03:00:38;2.03;;;1.00;;
2522;SDS011;1272;53.332;9.860;2023-05-20T03:03:07;1.10;;;1.00;;
2522;SDS011;1272;53.332;9.860;2023-05-20T03:05:34;1.10;;;1.10;;
2522;SDS011;1272;53.332;9.860;2023-05-20T03:08:06;1.00;;;1.00;;
2522;SDS011;1272;53.332;9.860;2023-05-20T03:10:33;0.97;;;0.97;;
2522;SDS011;1272;53.332;9.860;2023-05-20T03:13:06;1.10;;;1.10;;
2522;SDS011;1272;53.332;9.860;2023-05-20T03:15:33;3.13;;;1.30;;
2522;SDS011;1272;53.332;9.860;2023-05-20T03:18:00;3.67;;;1.23;;
2522;SDS011;1272;53.332;9.860;2023-05-20T03:20:26;0.97;;;0.87;;
2522;SDS011;1272;53.332;9.860;2023-05-20T03:22:53;1.23;;;1.17;;
2522;SDS011;1272;53.332;9.860;2023-05-20T03:25:19;1.10;;;1.10;;
2522;SDS011;1272;53.332;9.860;2023-05-20T03:27:46;0.80;;;0.80;;
2522;SDS011;1272;53.332;9.860;2023-05-20T03:30:12;2.33;;;2.07;;
2522;SDS011;1272;53.332;9.860;2023-05-20T03:32:38;0.90;;;0.90;;
2522;SDS011;1272;53.332;9.860;2023-05-20T03:35:04;1.00;;;1.00;;
2522;SDS011;1272;53.332;9.860;2023-05-20T03:37:30;0.77;;;0.77;;
2522;SDS011;1272;53.332;9.860;2023-05-20T03:39:56;0.93;;;0.93;;
2522;SDS011;1272;53.332;9.860;2023-05-20T03:42:22;1.10;;;1.10;;
2522;SDS011;1272;53.332;9.860;2023-05-20T03:44:47;1.03;;;0.93;;
2522;SDS011;1272;53.332;9.860;2023-05-20T03:47:14;1.07;;;1.07;;
2522;SDS011;1272;53.332;9.860;2023-05-20T03:49:39;1.10;;;1.00;;
2522;SDS011;1272;53.332;9.860;2023-05-20T03:52:05;1.00;;;1.00;;
2522;SDS011;1272;53.332;9.860;2023-05-20T03:54:31;0.83;;;0.83;;
2522;SDS011;1272;53.332;9.860;2023-05-20T03:56:57;1.03;;;1.00;;
2522;SDS011;1272;53.332;9.860;2023-05-20T03:59:27;1.10;;;1.00;;
2522;SDS011;1272;53.332;9.860;2023-05-20T04:01:53;0.90;;;0.90;;
2522;SDS011;1272;53.332;9.860;2023-05-20T04:04:18;1.33;;;1.10;;
2522;SDS011;1272;53.332;9.860;2023-05-20T04:06:44;0.93;;;0.93;;
2522;SDS011;1272;53.332;9.860;2023-05-20T04:09:10;1.00;;;1.00;;
2522;SDS011;1272;53.332;9.860;2023-05-20T04:11:36;2.57;;;2.00;;
2522;SDS011;1272;53.332;9.860;2023-05-20T04:14:01;0.93;;;0.93;;
2522;SDS011;1272;53.332;9.860;2023-05-20T04:16:27;0.90;;;0.90;;
2522;SDS011;1272;53.332;9.860;2023-05-20T04:18:56;0.90;;;0.90;;
2522;SDS011;1272;53.332;9.860;2023-05-20T04:21:23;0.90;;;0.90;;
2522;SDS011;1272;53.332;9.860;2023-05-20T04:23:49;1.13;;;1.03;;
2522;SDS011;1272;53.332;9.860;2023-05-20T04:26:14;1.23;;;0.90;;
2522;SDS011;1272;53.332;9.860;2023-05-20T04:28:40;1.40;;;0.93;;
2522;SDS011;1272;53.332;9.860;2023-05-20T04:31:06;1.10;;;1.00;;
2522;SDS011;1272;53.332;9.860;2023-05-20T04:33:32;1.27;;;1.07;;
2522;SDS011;1272;53.332;9.860;2023-05-20T04:36:02;1.10;;;0.90;;
2522;SDS011;1272;53.332;9.860;2023-05-20T04:38:29;1.13;;;1.13;;
2522;SDS011;1272;53.332;9.860;2023-05-20T04:40:56;1.30;;;1.20;;
2522;SDS011;1272;53.332;9.860;2023-05-20T04:43:26;0.70;;;0.70;;
2522;SDS011;1272;53.332;9.860;2023-05-20T04:45:54;1.30;;;0.90;;
2522;SDS011;1272;53.332;9.860;2023-05-20T04:48:20;1.17;;;1.00;;
2522;SDS011;1272;53.332;9.860;2023-05-20T04:50:46;0.90;;;0.90;;
2522;SDS011;1272;53.332;9.860;2023-05-20T04:53:13;1.43;;;0.97;;
2522;SDS011;1272;53.332;9.860;2023-05-20T04:55:43;1.30;;;1.20;;
2522;SDS011;1272;53.332;9.860;2023-05-20T04:58:12;1.40;;;1.30;;
2522;SDS011;1272;53.332;9.860;2023-05-20T05:00:41;2.53;;;1.30;;
2522;SDS011;1272;53.332;9.860;2023-05-20T05:03:11;1.53;;;1.10;;
2522;SDS011;1272;53.332;9.860;2023-05-20T05:05:39;1.07;;;1.07;;
2522;SDS011;1272;53.332;9.860;2023-05-20T05:08:06;1.33;;;1.17;;
2522;SDS011;1272;53.332;9.860;2023-05-20T05:10:33;1.27;;;1.17;;
2522;SDS011;1272;53.332;9.860;2023-05-20T05:12:59;1.70;;;1.20;;
2522;SDS011;1272;53.332;9.860;2023-05-20T05:15:26;1.33;;;1.13;;
2522;SDS011;1272;53.332;9.860;2023-05-20T05:17:52;1.43;;;1.20;;
2522;SDS011;1272;53.332;9.860;2023-05-20T05:20:18;1.60;;;1.50;;
2522;SDS011;1272;53.332;9.860;2023-05-20T05:22:44;1.20;;;1.10;;
2522;SDS011;1272;53.332;9.860;2023-05-20T05:25:10;1.20;;;1.20;;
2522;SDS011;1272;53.332;9.860;2023-05-20T05:27:36;1.10;;;1.00;;
2522;SDS011;1272;53.332;9.860;2023-05-20T05:30:03;2.33;;;1.10;;
2522;SDS011;1272;53.332;9.860;2023-05-20T05:32:30;1.70;;;1.13;;
2522;SDS011;1272;53.332;9.860;2023-05-20T05:34:56;1.67;;;1.57;;
2522;SDS011;1272;53.332;9.860;2023-05-20T05:37:22;1.50;;;1.40;;
2522;SDS011;1272;53.332;9.860;2023-05-20T05:39:47;1.07;;;1.07;;
2522;SDS011;1272;53.332;9.860;2023-05-20T05:42:13;3.47;;;1.30;;
2522;SDS011;1272;53.332;9.860;2023-05-20T05:44:39;1.40;;;1.30;;
2522;SDS011;1272;53.332;9.860;2023-05-20T05:47:05;1.87;;;1.80;;
2522;SDS011;1272;53.332;9.860;2023-05-20T05:49:31;1.60;;;1.30;;
2522;SDS011;1272;53.332;9.860;2023-05-20T05:51:58;1.63;;;1.00;;
2522;SDS011;1272;53.332;9.860;2023-05-20T05:54:23;1.37;;;1.20;;
2522;SDS011;1272;53.332;9.860;2023-05-20T05:56:50;2.27;;;1.00;;
2522;SDS011;1272;53.332;9.860;2023-05-20T05:59:16;1.87;;;1.37;;
2522;SDS011;1272;53.332;9.860;2023-05-20T06:01:42;1.40;;;1.20;;
2522;SDS011;1272;53.332;9.860;2023-05-20T06:04:08;1.47;;;1.27;;
2522;SDS011;1272;53.332;9.860;2023-05-20T06:06:34;2.63;;;1.27;;
2522;SDS011;1272;53.332;9.860;2023-05-20T06:08:59;1.93;;;1.43;;
2522;SDS011;1272;53.332;9.860;2023-05-20T06:11:25;1.20;;;1.20;;
2522;SDS011;1272;53.332;9.860;2023-05-20T06:13:51;3.50;;;1.10;;
2522;SDS011;1272;53.332;9.860;2023-05-20T06:16:17;1.63;;;1.53;;
2522;SDS011;1272;53.332;9.860;2023-05-20T06:18:44;1.60;;;1.50;;
2522;SDS011;1272;53.332;9.860;2023-05-20T06:21:10;2.73;;;1.40;;
2522;SDS011;1272;53.332;9.860;2023-05-20T06:23:36;1.80;;;1.40;;
2522;SDS011;1272;53.332;9.860;2023-05-20T06:26:02;1.90;;;1.20;;
2522;SDS011;1272;53.332;9.860;2023-05-20T06:28:28;3.70;;;1.50;;
2522;SDS011;1272;53.332;9.860;2023-05-20T06:30:54;2.63;;;1.50;;
2522;SDS011;1272;53.332;9.860;2023-05-20T06:33:23;1.20;;;1.10;;
2522;SDS011;1272;53.332;9.860;2023-05-20T06:35:59;1.73;;;1.63;;
2522;SDS011;1272;53.332;9.860;2023-05-20T06:38:25;3.63;;;1.20;;
2522;SDS011;1272;53.332;9.860;2023-05-20T06:40:51;1.30;;;1.20;;
2522;SDS011;1272;53.332;9.860;2023-05-20T06:43:17;2.03;;;1.50;;
2522;SDS011;1272;53.332;9.860;2023-05-20T06:45:43;1.90;;;1.63;;
2522;SDS011;1272;53.332;9.860;2023-05-20T06:48:09;1.10;;;1.10;;
2522;SDS011;1272;53.332;9.860;2023-05-20T06:50:35;1.30;;;1.20;;
2522;SDS011;1272;53.332;9.860;2023-05-20T06:53:01;1.87;;;1.20;;
2522;SDS011;1272;53.332;9.860;2023-05-20T06:55:28;1.87;;;1.77;;
2522;SDS011;1272;53.332;9.860;2023-05-20T06:57:54;2.90;;;1.40;;
2522;SDS011;1272;53.332;9.860;2023-05-20T07:00:19;1.30;;;1.27;;
2522;SDS011;1272;53.332;9.860;2023-05-20T07:02:45;1.60;;;1.50;;
2522;SDS011;1272;53.332;9.860;2023-05-20T07:05:11;3.67;;;1.60;;
2522;SDS011;1272;53.332;9.860;2023-05-20T07:07:37;1.63;;;1.53;;
2522;SDS011;1272;53.332;9.860;2023-05-20T07:10:03;1.30;;;1.30;;
2522;SDS011;1272;53.332;9.860;2023-05-20T07:12:30;1.37;;;1.27;;
2522;SDS011;1272;53.332;9.860;2023-05-20T07:14:56;2.97;;;1.63;;
2522;SDS011;1272;53.332;9.860;2023-05-20T07:17:22;1.67;;;1.57;;
2522;SDS011;1272;53.332;9.860;2023-05-20T07:19:48;1.70;;;1.60;;
2522;SDS011;1272;53.332;9.860;2023-05-20T07:22:14;2.60;;;1.77;;
2522;SDS011;1272;53.332;9.860;2023-05-20T07:24:40;2.83;;;1.43;;
2522;SDS011;1272;53.332;9.860;2023-05-20T07:27:06;2.50;;;1.50;;
2522;SDS011;1272;53.332;9.860;2023-05-20T07:29:32;1.83;;;1.77;;
2522;SDS011;1272;53.332;9.860;2023-05-20T07:31:58;1.33;;;1.33;;
2522;SDS011;1272;53.332;9.860;2023-05-20T07:34:24;3.13;;;1.77;;
2522;SDS011;1272;53.332;9.860;2023-05-20T07:36:50;2.27;;;2.00;;
2522;SDS011;1272;53.332;9.860;2023-05-20T07:39:17;1.47;;;1.37;;
2522;SDS011;1272;53.332;9.860;2023-05-20T07:41:43;2.30;;;1.70;;
2522;SDS011;1272;53.332;9.860;2023-05-20T07:44:08;3.30;;;1.87;;
2522;SDS011;1272;53.332;9.860;2023-05-20T07:46:35;1.80;;;1.70;;
2522;SDS011;1272;53.332;9.860;2023-05-20T07:49:02;2.43;;;2.23;;
2522;SDS011;1272;53.332;9.860;2023-05-20T07:51:28;1.83;;;1.57;;
2522;SDS011;1272;53.332;9.860;2023-05-20T07:53:55;1.60;;;1.50;;
2522;SDS011;1272;53.332;9.860;2023-05-20T07:56:21;1.60;;;1.50;;
2522;SDS011;1272;53.332;9.860;2023-05-20T07:58:56;8.57;;;1.70;;
2522;SDS011;1272;53.332;9.860;2023-05-20T08:01:23;2.57;;;1.73;;
2522;SDS011;1272;53.332;9.860;2023-05-20T08:03:50;3.23;;;2.03;;
2522;SDS011;1272;53.332;9.860;2023-05-20T08:06:16;2.10;;;2.00;;
2522;SDS011;1272;53.332;9.860;2023-05-20T08:08:44;1.70;;;1.60;;
2522;SDS011;1272;53.332;9.860;2023-05-20T08:11:10;1.77;;;1.67;;
2522;SDS011;1272;53.332;9.860;2023-05-20T08:13:37;2.60;;;1.90;;
2522;SDS011;1272;53.332;9.860;2023-05-20T08:16:03;2.60;;;1.70;;
2522;SDS011;1272;53.332;9.860;2023-05-20T08:18:30;2.60;;;1.70;;
2522;SDS011;1272;53.332;9.860;2023-05-20T08:21:00;1.90;;;1.80;;
2522;SDS011;1272;53.332;9.860;2023-05-20T08:23:26;1.50;;;1.40;;
2522;SDS011;1272;53.332;9.860;2023-05-20T08:25:52;1.77;;;1.63;;
2522;SDS011;1272;53.332;9.860;2023-05-20T08:28:17;1.80;;;1.70;;
2522;SDS011;1272;53.332;9.860;2023-05-20T08:30:43;1.80;;;1.70;;
2522;SDS011;1272;53.332;9.860;2023-05-20T08:33:09;1.90;;;1.80;;
2522;SDS011;1272;53.332;9.860;2023-05-20T08:35:35;1.83;;;1.53;;
2522;SDS011;1272;53.332;9.860;2023-05-20T08:38:03;3.63;;;1.53;;
2522;SDS011;1272;53.332;9.860;2023-05-20T08:40:29;1.73;;;1.63;;
2522;SDS011;1272;53.332;9.860;2023-05-20T08:42:55;1.80;;;1.70;;
2522;SDS011;1272;53.332;9.860;2023-05-20T08:45:22;2.70;;;1.40;;
2522;SDS011;1272;53.332;9.860;2023-05-20T08:47:52;2.40;;;1.70;;
2522;SDS011;1272;53.332;9.860;2023-05-20T08:50:18;2.07;;;1.77;;
2522;SDS011;1272;53.332;9.860;2023-05-20T08:52:45;1.50;;;1.40;;
2522;SDS011;1272;53.332;9.860;2023-05-20T08:58:02;2.30;;;1.57;;
2522;SDS011;1272;53.332;9.860;2023-05-20T09:00:28;1.17;;;1.17;;
2522;SDS011;1272;53.332;9.860;2023-05-20T09:02:54;1.40;;;1.30;;
2522;SDS011;1272;53.332;9.860;2023-05-20T09:05:20;1.97;;;1.80;;
2522;SDS011;1272;53.332;9.860;2023-05-20T09:07:46;1.50;;;1.40;;
2522;SDS011;1272;53.332;9.860;2023-05-20T09:10:12;1.47;;;1.37;;
2522;SDS011;1272;53.332;9.860;2023-05-20T09:12:38;1.43;;;1.33;;
2522;SDS011;1272;53.332;9.860;2023-05-20T09:15:05;1.43;;;1.30;;
2522;SDS011;1272;53.332;9.860;2023-05-20T09:17:35;1.30;;;1.20;;
2522;SDS011;1272;53.332;9.860;2023-05-20T09:20:04;3.50;;;1.20;;
2522;SDS011;1272;53.332;9.860;2023-05-20T09:22:34;1.83;;;1.60;;
2522;SDS011;1272;53.332;9.860;2023-05-20T09:25:00;1.47;;;1.37;;
2522;SDS011;1272;53.332;9.860;2023-05-20T09:27:26;1.73;;;1.30;;
2522;SDS011;1272;53.332;9.860;2023-05-20T09:29:52;1.87;;;1.73;;
2522;SDS011;1272;53.332;9.860;2023-05-20T09:32:19;1.73;;;1.63;;
2522;SDS011;1272;53.332;9.860;2023-05-20T09:34:48;2.10;;;1.13;;
2522;SDS011;1272;53.332;9.860;2023-05-20T09:37:14;1.73;;;1.60;;
2522;SDS011;1272;53.332;9.860;2023-05-20T09:42:21;1.43;;;1.33;;
2522;SDS011;1272;53.332;9.860;2023-05-20T09:44:50;1.60;;;1.50;;
2522;SDS011;1272;53.332;9.860;2023-05-20T09:47:18;1.83;;;1.67;;
2522;SDS011;1272;53.332;9.860;2023-05-20T09:49:44;1.70;;;1.30;;
2522;SDS011;1272;53.332;9.860;2023-05-20T09:52:16;1.60;;;1.50;;
2522;SDS011;1272;53.332;9.860;2023-05-20T09:54:43;1.67;;;1.20;;
2522;SDS011;1272;53.332;9.860;2023-05-20T09:57:09;2.10;;;1.37;;
2522;SDS011;1272;53.332;9.860;2023-05-20T09:59:36;1.33;;;1.23;;
2522;SDS011;1272;53.332;9.860;2023-05-20T10:02:03;1.50;;;1.43;;
2522;SDS011;1272;53.332;9.860;2023-05-20T10:04:30;1.73;;;1.63;;
2522;SDS011;1272;53.332;9.860;2023-05-20T10:07:12;1.33;;;1.23;;
2522;SDS011;1272;53.332;9.860;2023-05-20T10:15:26;1.27;;;1.20;;
2522;SDS011;1272;53.332;9.860;2023-05-20T10:20:48;1.80;;;1.30;;
2522;SDS011;1272;53.332;9.860;2023-05-20T10:23:28;1.63;;;1.53;;
2522;SDS011;1272;53.332;9.860;2023-05-20T10:25:55;1.77;;;1.63;;
2522;SDS011;1272;53.332;9.860;2023-05-20T10:28:31;1.23;;;1.23;;
2522;SDS011;1272;53.332;9.860;2023-05-20T10:31:00;1.80;;;1.50;;
2522;SDS011;1272;53.332;9.860;2023-05-20T10:33:27;1.40;;;1.30;;
2522;SDS011;1272;53.332;9.860;2023-05-20T10:35:56;1.23;;;1.17;;
2522;SDS011;1272;53.332;9.860;2023-05-20T10:38:26;2.87;;;1.43;;
2522;SDS011;1272;53.332;9.860;2023-05-20T10:40:52;1.77;;;1.40;;
2522;SDS011;1272;53.332;9.860;2023-05-20T10:43:25;1.77;;;1.20;;
2522;SDS011;1272;53.332;9.860;2023-05-20T10:45:55;1.40;;;1.30;;
2522;SDS011;1272;53.332;9.860;2023-05-20T10:48:30;1.37;;;1.27;;
2522;SDS011;1272;53.332;9.860;2023-05-20T10:50:58;1.73;;;1.17;;
2522;SDS011;1272;53.332;9.860;2023-05-20T10:53:40;1.87;;;1.50;;
2522;SDS011;1272;53.332;9.860;2023-05-20T10:56:49;6.50;;;1.93;;
2522;SDS011;1272;53.332;9.860;2023-05-20T10:59:00;1.40;;;1.30;;
2522;SDS011;1272;53.332;9.860;2023-05-20T11:01:26;1.27;;;1.17;;
2522;SDS011;1272;53.332;9.860;2023-05-20T11:03:53;1.70;;;1.60;;
2522;SDS011;1272;53.332;9.860;2023-05-20T11:06:24;1.77;;;1.57;;
2522;SDS011;1272;53.332;9.860;2023-05-20T11:08:52;2.60;;;1.43;;
2522;SDS011;1272;53.332;9.860;2023-05-20T11:11:19;1.43;;;1.33;;
2522;SDS011;1272;53.332;9.860;2023-05-20T11:13:50;1.20;;;1.10;;
2522;SDS011;1272;53.332;9.860;2023-05-20T11:16:17;1.30;;;1.20;;
2522;SDS011;1272;53.332;9.860;2023-05-20T11:18:46;1.70;;;1.60;;
2522;SDS011;1272;53.332;9.860;2023-05-20T11:21:13;1.50;;;1.40;;
2522;SDS011;1272;53.332;9.860;2023-05-20T11:23:38;1.40;;;1.30;;
2522;SDS011;1272;53.332;9.860;2023-05-20T11:26:04;1.67;;;1.20;;
2522;SDS011;1272;53.332;9.860;2023-05-20T11:28:29;1.57;;;1.40;;
2522;SDS011;1272;53.332;9.860;2023-05-20T11:30:58;1.63;;;1.53;;
2522;SDS011;1272;53.332;9.860;2023-05-20T11:33:24;1.70;;;1.60;;
2522;SDS011;1272;53.332;9.860;2023-05-20T11:35:51;1.97;;;1.87;;
2522;SDS011;1272;53.332;9.860;2023-05-20T11:38:18;1.53;;;1.40;;
2522;SDS011;1272;53.332;9.860;2023-05-20T11:40:46;2.87;;;1.37;;
2522;SDS011;1272;53.332;9.860;2023-05-20T11:43:15;2.40;;;1.77;;
2522;SDS011;1272;53.332;9.860;2023-05-20T11:45:42;2.07;;;1.97;;
2522;SDS011;1272;53.332;9.860;2023-05-20T11:48:09;1.60;;;1.40;;
2522;SDS011;1272;53.332;9.860;2023-05-20T11:50:38;1.40;;;1.30;;
2522;SDS011;1272;53.332;9.860;2023-05-20T11:53:06;3.00;;;2.13;;
2522;SDS011;1272;53.332;9.860;2023-05-20T11:55:33;3.17;;;2.00;;
2522;SDS011;1272;53.332;9.860;2023-05-20T11:58:09;2.33;;;2.13;;
2522;SDS011;1272;53.332;9.860;2023-05-20T12:00:35;2.60;;;2.30;;
2522;SDS011;1272;53.332;9.860;2023-05-20T12:03:00;3.63;;;1.80;;
2522;SDS011;1272;53.332;9.860;2023-05-20T12:05:26;2.33;;;1.77;;
2522;SDS011;1272;53.332;9.860;2023-05-20T12:07:52;1.80;;;1.70;;
2522;SDS011;1272;53.332;9.860;2023-05-20T12:10:18;3.53;;;2.00;;
2522;SDS011;1272;53.332;9.860;2023-05-20T12:12:45;2.90;;;1.60;;
2522;SDS011;1272;53.332;9.860;2023-05-20T12:15:10;2.90;;;1.83;;
2522;SDS011;1272;53.332;9.860;2023-05-20T12:17:43;1.70;;;1.60;;
2522;SDS011;1272;53.332;9.860;2023-05-20T12:20:11;1.40;;;1.30;;
2522;SDS011;1272;53.332;9.860;2023-05-20T12:22:39;2.10;;;1.40;;
2522;SDS011;1272;53.332;9.860;2023-05-20T12:25:05;9.50;;;1.77;;
2522;SDS011;1272;53.332;9.860;2023-05-20T12:27:31;6.80;;;2.00;;
2522;SDS011;1272;53.332;9.860;2023-05-20T12:29:58;2.27;;;1.70;;
2522;SDS011;1272;53.332;9.860;2023-05-20T12:32:24;2.00;;;1.57;;
2522;SDS011;1272;53.332;9.860;2023-05-20T12:34:49;1.97;;;1.70;;
2522;SDS011;1272;53.332;9.860;2023-05-20T12:37:16;2.23;;;1.90;;
2522;SDS011;1272;53.332;9.860;2023-05-20T12:39:42;1.90;;;1.80;;
2522;SDS011;1272;53.332;9.860;2023-05-20T12:42:07;2.40;;;2.00;;
2522;SDS011;1272;53.332;9.860;2023-05-20T12:44:34;2.67;;;2.47;;
2522;SDS011;1272;53.332;9.860;2023-05-20T12:47:00;2.33;;;2.23;;
2522;SDS011;1272;53.332;9.860;2023-05-20T12:49:26;1.83;;;1.73;;
2522;SDS011;1272;53.332;9.860;2023-05-20T12:51:51;3.00;;;2.00;;
2522;SDS011;1272;53.332;9.860;2023-05-20T12:54:18;1.90;;;1.80;;
2522;SDS011;1272;53.332;9.860;2023-05-20T12:56:44;3.20;;;1.53;;
2522;SDS011;1272;53.332;9.860;2023-05-20T12:59:13;5.60;;;2.00;;
2522;SDS011;1272;53.332;9.860;2023-05-20T13:01:39;2.23;;;1.80;;
2522;SDS011;1272;53.332;9.860;2023-05-20T13:04:05;2.60;;;1.80;;
2522;SDS011;1272;53.332;9.860;2023-05-20T13:06:30;2.10;;;2.00;;
2522;SDS011;1272;53.332;9.860;2023-05-20T13:08:57;3.57;;;2.10;;
2522;SDS011;1272;53.332;9.860;2023-05-20T13:11:23;1.80;;;1.70;;
2522;SDS011;1272;53.332;9.860;2023-05-20T13:13:49;1.80;;;1.70;;
2522;SDS011;1272;53.332;9.860;2023-05-20T13:16:14;5.17;;;2.30;;
2522;SDS011;1272;53.332;9.860;2023-05-20T13:18:42;2.30;;;2.10;;
2522;SDS011;1272;53.332;9.860;2023-05-20T13:21:08;2.33;;;2.13;;
2522;SDS011;1272;53.332;9.860;2023-05-20T13:23:34;2.03;;;1.90;;
2522;SDS011;1272;53.332;9.860;2023-05-20T13:26:00;2.20;;;2.00;;
2522;SDS011;1272;53.332;9.860;2023-05-20T13:28:26;2.53;;;2.33;;
2522;SDS011;1272;53.332;9.860;2023-05-20T13:30:52;1.83;;;1.73;;
2522;SDS011;1272;53.332;9.860;2023-05-20T13:33:18;2.30;;;2.10;;
2522;SDS011;1272;53.332;9.860;2023-05-20T13:35:44;2.07;;;1.97;;
2522;SDS011;1272;53.332;9.860;2023-05-20T13:38:10;2.20;;;2.00;;
2522;SDS011;1272;53.332;9.860;2023-05-20T13:40:35;2.53;;;2.33;;
2522;SDS011;1272;53.332;9.860;2023-05-20T13:43:01;2.40;;;2.30;;
2522;SDS011;1272;53.332;9.860;2023-05-20T13:45:27;3.00;;;2.33;;
2522;SDS011;1272;53.332;9.860;2023-05-20T13:47:53;2.53;;;2.30;;
2522;SDS011;1272;53.332;9.860;2023-05-20T13:50:19;3.33;;;1.80;;
2522;SDS011;1272;53.332;9.860;2023-05-20T13:52:45;2.10;;;1.90;;
2522;SDS011;1272;53.332;9.860;2023-05-20T13:55:10;2.40;;;2.30;;
2522;SDS011;1272;53.332;9.860;2023-05-20T13:57:37;2.73;;;2.13;;
2522;SDS011;1272;53.332;9.860;2023-05-20T14:00:03;2.97;;;2.30;;
2522;SDS011;1272;53.332;9.860;2023-05-20T14:02:29;2.17;;;1.97;;
2522;SDS011;1272;53.332;9.860;2023-05-20T14:04:55;2.50;;;2.40;;
2522;SDS011;1272;53.332;9.860;2023-05-20T14:07:21;3.10;;;2.80;;
2522;SDS011;1272;53.332;9.860;2023-05-20T14:09:46;2.20;;;2.00;;
2522;SDS011;1272;53.332;9.860;2023-05-20T14:12:12;2.40;;;2.10;;
2522;SDS011;1272;53.332;9.860;2023-05-20T14:14:38;2.03;;;1.93;;
2522;SDS011;1272;53.332;9.860;2023-05-20T14:17:04;2.30;;;2.20;;
2522;SDS011;1272;53.332;9.860;2023-05-20T14:19:30;2.37;;;2.27;;
2522;SDS011;1272;53.332;9.860;2023-05-20T14:21:56;4.40;;;2.03;;
2522;SDS011;1272;53.332;9.860;2023-05-20T14:24:25;2.10;;;1.90;;
2522;SDS011;1272;53.332;9.860;2023-05-20T14:26:51;2.00;;;1.90;;
2522;SDS011;1272;53.332;9.860;2023-05-20T14:29:17;2.50;;;2.33;;
2522;SDS011;1272;53.332;9.860;2023-05-20T14:31:45;1.73;;;1.63;;
2522;SDS011;1272;53.332;9.860;2023-05-20T14:34:11;2.00;;;1.90;;
2522;SDS011;1272;53.332;9.860;2023-05-20T14:36:36;2.47;;;1.90;;
2522;SDS011;1272;53.332;9.860;2023-05-20T14:39:02;1.87;;;1.67;;
2522;SDS011;1272;53.332;9.860;2023-05-20T14:41:29;2.43;;;2.23;;
2522;SDS011;1272;53.332;9.860;2023-05-20T14:43:55;2.47;;;2.37;;
2522;SDS011;1272;53.332;9.860;2023-05-20T14:46:20;2.33;;;2.23;;
2522;SDS011;1272;53.332;9.860;2023-05-20T14:48:47;2.20;;;2.07;;
2522;SDS011;1272;53.332;9.860;2023-05-20T14:51:13;2.50;;;2.20;;
2522;SDS011;1272;53.332;9.860;2023-05-20T14:53:38;2.17;;;2.07;;
2522;SDS011;1272;53.332;9.860;2023-05-20T14:56:06;2.10;;;1.90;;
2522;SDS011;1272;53.332;9.860;2023-05-20T14:58:31;2.10;;;2.00;;
2522;SDS011;1272;53.332;9.860;2023-05-20T15:00:59;2.10;;;2.00;;
2522;SDS011;1272;53.332;9.860;2023-05-20T15:03:25;2.90;;;2.20;;
2522;SDS011;1272;53.332;9.860;2023-05-20T15:05:51;2.00;;;1.90;;
2522;SDS011;1272;53.332;9.860;2023-05-20T15:08:17;1.77;;;1.63;;
2522;SDS011;1272;53.332;9.860;2023-05-20T15:10:43;2.10;;;1.90;;
2522;SDS011;1272;53.332;9.860;2023-05-20T15:13:09;2.70;;;2.30;;
2522;SDS011;1272;53.332;9.860;2023-05-20T15:15:34;2.00;;;1.90;;
2522;SDS011;1272;53.332;9.860;2023-05-20T15:18:00;2.70;;;1.90;;
2522;SDS011;1272;53.332;9.860;2023-05-20T15:20:26;1.77;;;1.67;;
2522;SDS011;1272;53.332;9.860;2023-05-20T15:22:52;1.70;;;1.60;;
2522;SDS011;1272;53.332;9.860;2023-05-20T15:25:19;1.63;;;1.53;;
2522;SDS011;1272;53.332;9.860;2023-05-20T15:27:44;2.00;;;1.90;;